createdAt,value
2023-07-21T00:02:42.839Z,0.70
2023-07-21T00:05:45.647Z,0.60
2023-07-21T00:08:48.354Z,0.50
2023-07-21T00:11:51.104Z,0.50
2023-07-21T00:14:53.772Z,0.40
2023-07-21T00:17:56.661Z,0.50
2023-07-21T00:21:00.348Z,0.40
2023-07-21T00:24:03.745Z,0.50
2023-07-21T00:27:07.074Z,0.30
2023-07-21T00:30:10.368Z,0.40
2023-07-21T00:33:13.069Z,0.30
2023-07-21T00:36:15.751Z,0.50
2023-07-21T00:39:18.522Z,0.30
2023-07-21T00:42:21.952Z,0.40
2023-07-21T00:45:24.770Z,0.40
2023-07-21T00:48:27.558Z,0.60
2023-07-21T00:51:30.328Z,0.50
2023-07-21T00:54:33.332Z,0.50
2023-07-21T00:57:36.860Z,0.50
2023-07-21T01:00:42.032Z,0.60
2023-07-21T01:03:45.214Z,0.50
2023-07-21T01:06:48.911Z,0.80
2023-07-21T01:09:51.676Z,0.60
2023-07-21T01:12:54.391Z,0.50
2023-07-21T01:15:57.968Z,0.80
2023-07-21T01:19:02.425Z,0.60
2023-07-21T01:22:22.339Z,0.60
2023-07-21T01:25:26.246Z,0.40
2023-07-21T01:28:30.386Z,0.40
2023-07-21T01:31:36.418Z,0.40
2023-07-21T01:34:40.924Z,0.30
2023-07-21T01:37:46.494Z,0.60
2023-07-21T01:40:49.898Z,0.50
2023-07-21T01:43:54.756Z,0.50
2023-07-21T01:46:57.709Z,0.40
2023-07-21T01:50:01.441Z,0.30
2023-07-21T01:53:09.265Z,0.40
2023-07-21T01:56:29.880Z,0.40
2023-07-21T01:59:32.825Z,0.60
2023-07-21T02:02:35.943Z,0.40
2023-07-21T02:05:38.870Z,0.60
2023-07-21T02:08:41.669Z,0.40
2023-07-21T02:11:45.481Z,0.60
2023-07-21T02:14:48.175Z,0.40
2023-07-21T02:17:50.915Z,0.50
2023-07-21T02:20:53.847Z,0.50
2023-07-21T02:23:56.727Z,0.60
2023-07-21T02:27:00.674Z,0.50
2023-07-21T02:30:05.016Z,0.40
2023-07-21T02:33:07.779Z,0.50
2023-07-21T02:36:10.598Z,0.40
2023-07-21T02:39:13.357Z,0.80
2023-07-21T02:42:16.036Z,0.50
2023-07-21T02:45:19.075Z,0.50
2023-07-21T02:48:23.035Z,0.50
2023-07-21T02:51:25.820Z,0.60
2023-07-21T02:54:28.525Z,0.70
2023-07-21T02:57:31.339Z,0.60
2023-07-21T03:00:34.497Z,0.70
2023-07-21T03:03:37.667Z,0.50
2023-07-21T03:06:42.713Z,0.60
2023-07-21T03:09:45.877Z,0.40
2023-07-21T03:12:48.892Z,0.60
2023-07-21T03:15:54.746Z,0.70
2023-07-21T03:18:57.523Z,0.80
2023-07-21T03:22:01.905Z,0.50
2023-07-21T03:25:08.073Z,0.50
2023-07-21T03:28:11.101Z,0.50
2023-07-21T03:31:13.835Z,0.60
2023-07-21T03:34:16.672Z,0.60
2023-07-21T03:37:19.478Z,0.60
2023-07-21T03:40:22.166Z,0.60
2023-07-21T03:43:24.888Z,0.50
2023-07-21T03:46:27.877Z,0.50
2023-07-21T03:49:30.962Z,0.50
2023-07-21T03:52:33.645Z,0.50
2023-07-21T03:55:37.481Z,0.50
2023-07-21T03:58:40.169Z,0.50
2023-07-21T04:01:42.950Z,0.50
2023-07-21T04:04:46.963Z,0.30
2023-07-21T04:07:49.890Z,0.40
2023-07-21T04:10:52.515Z,0.30
2023-07-21T04:13:55.143Z,0.40
2023-07-21T04:16:57.802Z,0.40
2023-07-21T04:20:00.418Z,0.70
2023-07-21T04:23:03.546Z,0.70
2023-07-21T04:26:08.184Z,0.60
2023-07-21T04:29:21.410Z,0.50
2023-07-21T04:32:33.047Z,0.50
2023-07-21T04:35:35.736Z,0.60
2023-07-21T04:38:38.410Z,0.50
2023-07-21T04:41:41.659Z,0.70
2023-07-21T04:44:46.126Z,0.50
2023-07-21T04:47:50.773Z,0.70
2023-07-21T04:50:54.080Z,0.80
2023-07-21T04:53:56.830Z,0.80
2023-07-21T04:56:59.477Z,0.70
2023-07-21T05:00:03.717Z,0.70
2023-07-21T05:03:06.587Z,0.80
2023-07-21T05:06:10.885Z,1.20
2023-07-21T05:09:14.557Z,1.10
2023-07-21T05:12:17.190Z,0.90
2023-07-21T05:15:19.859Z,0.90
2023-07-21T05:18:22.511Z,0.60
2023-07-21T05:21:25.481Z,0.50
2023-07-21T05:24:28.193Z,0.70
2023-07-21T05:27:30.856Z,0.50
2023-07-21T05:30:33.499Z,0.50
2023-07-21T05:33:37.233Z,1.00
2023-07-21T05:36:40.165Z,0.70
2023-07-21T05:39:43.213Z,0.60
2023-07-21T05:42:49.084Z,0.50
2023-07-21T05:45:51.801Z,0.50
2023-07-21T05:48:54.469Z,0.90
2023-07-21T05:51:57.184Z,0.70
2023-07-21T05:55:00.081Z,0.40
2023-07-21T05:58:02.758Z,0.50
2023-07-21T06:01:05.570Z,0.30
2023-07-21T06:04:08.537Z,0.30
2023-07-21T06:07:11.328Z,0.20
2023-07-21T06:10:14.178Z,0.30
2023-07-21T06:13:16.815Z,0.20
2023-07-21T06:16:19.546Z,0.20
2023-07-21T06:19:22.227Z,0.30
2023-07-21T06:22:25.013Z,0.30
2023-07-21T06:25:27.877Z,0.40
2023-07-21T06:28:30.756Z,0.30
2023-07-21T06:31:33.485Z,0.30
2023-07-21T06:34:36.184Z,0.20
2023-07-21T06:37:41.779Z,0.40
2023-07-21T06:40:44.495Z,0.50
2023-07-21T06:43:47.263Z,0.70
2023-07-21T06:46:51.081Z,1.10
2023-07-21T06:49:53.811Z,0.50
2023-07-21T06:52:56.466Z,0.60
2023-07-21T06:55:59.174Z,0.50
2023-07-21T06:59:01.858Z,0.30
2023-07-21T07:02:04.829Z,0.40
2023-07-21T07:05:07.897Z,0.30
2023-07-21T07:08:11.842Z,0.50
2023-07-21T07:11:14.512Z,0.50
2023-07-21T07:14:17.178Z,0.50
2023-07-21T07:17:19.831Z,0.30
2023-07-21T07:20:23.094Z,0.40
2023-07-21T07:23:25.861Z,0.40
2023-07-21T07:26:33.184Z,0.30
2023-07-21T07:29:36.726Z,0.30
2023-07-21T07:32:39.487Z,0.50
2023-07-21T07:35:54.316Z,0.40
2023-07-21T07:38:57.321Z,0.50
2023-07-21T07:42:01.809Z,0.50
2023-07-21T07:45:04.769Z,0.50
2023-07-21T07:48:10.389Z,0.40
2023-07-21T07:51:13.139Z,0.40
2023-07-21T07:54:16.313Z,0.40
2023-07-21T07:57:20.601Z,0.50
2023-07-21T08:00:23.624Z,0.50
2023-07-21T08:03:26.928Z,0.50
2023-07-21T08:06:31.113Z,0.40
2023-07-21T08:09:34.044Z,0.50
2023-07-21T08:12:36.732Z,0.40
2023-07-21T08:15:44.211Z,0.60
2023-07-21T08:18:46.900Z,0.50
2023-07-21T08:21:49.570Z,0.50
2023-07-21T08:24:53.851Z,0.40
2023-07-21T08:27:56.606Z,0.50
2023-07-21T08:30:59.927Z,0.40
2023-07-21T08:34:02.974Z,0.40
2023-07-21T08:37:06.667Z,0.60
2023-07-21T08:40:10.052Z,0.70
2023-07-21T08:43:12.810Z,0.40
2023-07-21T08:46:16.646Z,0.50
2023-07-21T08:49:19.598Z,0.30
2023-07-21T08:52:22.283Z,0.70
2023-07-21T08:55:26.675Z,0.80
2023-07-21T08:58:30.144Z,0.40
2023-07-21T09:01:32.886Z,0.40
2023-07-21T09:04:36.047Z,0.40
2023-07-21T09:07:42.849Z,0.40
2023-07-21T09:10:45.551Z,0.60
2023-07-21T09:13:55.035Z,0.70
2023-07-21T09:16:58.663Z,0.60
2023-07-21T09:20:08.780Z,0.50
2023-07-21T09:23:11.647Z,0.50
2023-07-21T09:26:21.991Z,0.60
2023-07-21T09:29:25.979Z,0.60
2023-07-21T09:32:28.970Z,0.50
2023-07-21T09:35:31.957Z,0.50
2023-07-21T09:38:36.293Z,0.50
2023-07-21T09:41:41.916Z,0.40
2023-07-21T09:44:49.284Z,0.40
2023-07-21T09:47:52.271Z,0.30
2023-07-21T09:50:59.790Z,0.50
2023-07-21T09:54:06.299Z,0.50
2023-07-21T09:57:17.829Z,0.40
2023-07-21T10:00:21.495Z,0.40
2023-07-21T10:03:24.320Z,0.40
2023-07-21T10:06:32.427Z,0.50
2023-07-21T10:09:37.225Z,0.50
2023-07-21T10:12:51.001Z,0.40
2023-07-21T10:15:59.329Z,0.50
2023-07-21T10:19:13.818Z,0.40
2023-07-21T10:22:26.803Z,0.40
2023-07-21T10:25:29.512Z,0.40
2023-07-21T10:28:35.584Z,0.30
2023-07-21T10:31:40.011Z,0.40
2023-07-21T10:34:44.174Z,0.50
2023-07-21T10:38:11.937Z,0.40
2023-07-21T10:41:14.610Z,0.30
2023-07-21T10:44:18.439Z,0.40
2023-07-21T10:47:23.988Z,0.50
2023-07-21T10:50:26.925Z,0.60
2023-07-21T10:53:30.099Z,0.60
2023-07-21T10:56:52.744Z,0.60
2023-07-21T10:59:55.590Z,0.50
2023-07-21T11:02:58.660Z,0.50
2023-07-21T11:06:02.243Z,0.40
2023-07-21T11:09:05.334Z,0.40
2023-07-21T11:12:08.607Z,0.40
2023-07-21T11:15:11.583Z,0.50
2023-07-21T11:18:14.342Z,0.40
2023-07-21T11:21:17.113Z,0.50
2023-07-21T11:24:23.975Z,0.50
2023-07-21T11:27:30.597Z,0.60
2023-07-21T11:30:33.331Z,0.60
2023-07-21T11:33:50.028Z,0.40
2023-07-21T11:36:59.265Z,0.50
2023-07-21T11:40:08.999Z,0.30
2023-07-21T11:43:11.614Z,0.50
2023-07-21T11:46:27.107Z,0.60
2023-07-21T11:49:29.881Z,0.40
2023-07-21T11:52:34.892Z,0.40
2023-07-21T11:55:38.450Z,0.50
2023-07-21T11:58:41.181Z,0.40
2023-07-21T12:01:44.261Z,0.40
2023-07-21T12:04:47.309Z,0.50
2023-07-21T12:07:50.042Z,0.40
2023-07-21T12:10:52.767Z,0.50
2023-07-21T12:13:55.535Z,0.40
2023-07-21T12:16:58.464Z,0.70
2023-07-21T12:20:01.378Z,0.30
2023-07-21T12:23:04.277Z,0.30
2023-07-21T12:26:09.445Z,0.40
2023-07-21T12:29:13.359Z,0.70
2023-07-21T12:32:18.722Z,0.40
2023-07-21T12:35:21.666Z,0.40
2023-07-21T12:38:24.540Z,0.70
2023-07-21T12:41:27.741Z,0.40
2023-07-21T12:44:30.898Z,0.40
2023-07-21T12:47:34.505Z,0.50
2023-07-21T12:50:37.255Z,0.80
2023-07-21T12:53:39.888Z,0.50
2023-07-21T12:56:42.775Z,0.60
2023-07-21T12:59:45.385Z,0.50
2023-07-21T13:02:48.196Z,0.50
2023-07-21T13:05:56.619Z,0.60
2023-07-21T13:09:00.263Z,0.50
2023-07-21T13:12:03.781Z,0.50
2023-07-21T13:15:06.876Z,0.50
2023-07-21T13:18:09.871Z,0.60
2023-07-21T13:21:12.662Z,0.60
2023-07-21T13:24:15.430Z,0.60
2023-07-21T13:27:18.127Z,0.60
2023-07-21T13:30:20.781Z,0.50
2023-07-21T13:33:23.455Z,0.50
2023-07-21T13:36:26.343Z,0.40
2023-07-21T13:39:29.633Z,0.30
2023-07-21T13:42:32.782Z,0.50
2023-07-21T13:45:35.488Z,0.40
2023-07-21T13:48:38.528Z,0.50
2023-07-21T13:51:42.171Z,0.50
2023-07-21T13:54:45.144Z,0.50
2023-07-21T13:57:47.983Z,0.60
2023-07-21T14:00:51.353Z,0.60
2023-07-21T14:03:55.943Z,0.40
2023-07-21T14:06:59.247Z,0.40
2023-07-21T14:10:02.792Z,0.50
2023-07-21T14:13:06.090Z,0.50
2023-07-21T14:16:10.283Z,0.50
2023-07-21T14:19:14.017Z,0.40
2023-07-21T14:22:16.719Z,0.40
2023-07-21T14:25:20.283Z,0.50
2023-07-21T14:28:22.985Z,0.40
2023-07-21T14:31:26.482Z,0.60
2023-07-21T14:34:29.308Z,0.40
2023-07-21T14:37:31.959Z,0.50
2023-07-21T14:40:35.456Z,0.50
2023-07-21T14:43:38.712Z,0.60
2023-07-21T14:46:42.004Z,0.50
2023-07-21T14:49:44.800Z,0.60
2023-07-21T14:52:48.068Z,0.50
2023-07-21T14:55:50.948Z,0.70
2023-07-21T14:58:53.699Z,0.60
2023-07-21T15:01:58.665Z,0.50
2023-07-21T15:05:01.479Z,0.40
2023-07-21T15:08:04.602Z,0.40
2023-07-21T15:11:08.678Z,0.50
2023-07-21T15:14:11.484Z,0.60
2023-07-21T15:17:14.274Z,0.60
2023-07-21T15:20:17.733Z,0.80
2023-07-21T15:23:21.461Z,0.50
2023-07-21T15:26:24.777Z,0.50
2023-07-21T15:29:29.684Z,0.70
2023-07-21T15:32:32.582Z,0.60
2023-07-21T15:35:45.932Z,0.60
2023-07-21T15:38:48.848Z,0.40
2023-07-21T15:41:51.901Z,0.60
2023-07-21T15:44:54.988Z,0.70
2023-07-21T15:47:57.818Z,0.60
2023-07-21T15:51:00.864Z,0.70
2023-07-21T15:54:16.326Z,0.70
2023-07-21T15:57:19.895Z,0.70
2023-07-21T16:00:22.662Z,0.60
2023-07-21T16:03:27.232Z,0.80
2023-07-21T16:06:30.023Z,0.60
2023-07-21T16:09:32.708Z,0.60
2023-07-21T16:12:35.664Z,0.60
2023-07-21T16:15:38.391Z,0.80
2023-07-21T16:18:41.207Z,0.70
2023-07-21T16:21:43.922Z,0.60
2023-07-21T16:24:46.748Z,0.50
2023-07-21T16:27:55.261Z,0.40
2023-07-21T16:30:58.363Z,0.70
2023-07-21T16:34:01.068Z,0.70
2023-07-21T16:37:04.783Z,0.70
2023-07-21T16:40:08.674Z,0.50
2023-07-21T16:43:12.054Z,0.70
2023-07-21T16:46:14.869Z,0.70
2023-07-21T16:49:17.999Z,0.70
2023-07-21T16:52:20.626Z,0.70
2023-07-21T16:55:23.323Z,0.60
2023-07-21T16:58:28.285Z,0.90
2023-07-21T17:01:33.031Z,0.70
2023-07-21T17:04:36.945Z,0.70
2023-07-21T17:07:40.186Z,0.70
2023-07-21T17:10:42.990Z,0.80
2023-07-21T17:13:45.866Z,0.80
2023-07-21T17:16:48.762Z,0.70
2023-07-21T17:19:51.607Z,0.80
2023-07-21T17:22:54.275Z,0.90
2023-07-21T17:25:57.923Z,0.70
2023-07-21T17:29:00.731Z,0.80
2023-07-21T17:32:03.534Z,0.80
2023-07-21T17:35:07.353Z,1.20
2023-07-21T17:38:10.089Z,1.40
2023-07-21T17:41:12.939Z,1.30
2023-07-21T17:44:15.744Z,1.40
2023-07-21T17:47:18.682Z,1.60
2023-07-21T17:50:21.647Z,1.20
2023-07-21T17:53:24.505Z,1.10
2023-07-21T17:56:27.322Z,1.30
2023-07-21T17:59:30.040Z,1.30
2023-07-21T18:02:32.835Z,1.10
2023-07-21T18:05:37.525Z,1.00
2023-07-21T18:08:43.359Z,1.00
2023-07-21T18:11:46.124Z,1.10
2023-07-21T18:14:51.768Z,1.00
2023-07-21T18:17:55.693Z,1.00
2023-07-21T18:21:04.336Z,1.00
2023-07-21T18:24:09.818Z,1.00
2023-07-21T18:27:12.584Z,1.00
2023-07-21T18:30:15.379Z,1.00
2023-07-21T18:33:21.878Z,1.00
2023-07-21T18:36:24.602Z,1.00
2023-07-21T18:39:27.380Z,1.10
2023-07-21T18:42:30.021Z,0.90
2023-07-21T18:45:32.838Z,0.90
2023-07-21T18:48:35.505Z,1.40
2023-07-21T18:51:38.195Z,1.20
2023-07-21T18:54:53.167Z,1.20
2023-07-21T18:58:01.310Z,1.20
2023-07-21T19:01:04.199Z,1.10
2023-07-21T19:04:07.896Z,1.10
2023-07-21T19:07:10.601Z,1.50
2023-07-21T19:10:13.300Z,1.60
2023-07-21T19:13:15.962Z,1.80
2023-07-21T19:16:24.190Z,1.30
2023-07-21T19:19:26.997Z,1.60
2023-07-21T19:22:29.661Z,1.50
2023-07-21T19:25:32.300Z,1.40
2023-07-21T19:28:36.098Z,1.20
2023-07-21T19:31:40.148Z,1.30
2023-07-21T19:34:45.441Z,1.40
2023-07-21T19:37:48.141Z,1.50
2023-07-21T19:40:51.488Z,1.60
2023-07-21T19:43:54.158Z,1.50
2023-07-21T19:46:57.077Z,1.60
2023-07-21T19:49:59.716Z,1.60
2023-07-21T19:53:02.708Z,2.10
2023-07-21T19:56:14.563Z,1.90
2023-07-21T19:59:17.296Z,1.60
2023-07-21T20:02:20.111Z,1.60
2023-07-21T20:05:23.232Z,1.70
2023-07-21T20:08:25.930Z,1.90
2023-07-21T20:11:29.111Z,1.50
2023-07-21T20:14:32.204Z,1.60
2023-07-21T20:17:34.991Z,1.50
2023-07-21T20:20:41.252Z,1.60
2023-07-21T20:23:43.977Z,1.50
2023-07-21T20:26:47.073Z,1.20
2023-07-21T20:29:49.740Z,1.00
2023-07-21T20:32:52.508Z,1.30
2023-07-21T20:35:55.251Z,1.30
2023-07-21T20:38:57.890Z,1.90
2023-07-21T20:42:03.650Z,2.10
2023-07-21T20:45:07.505Z,1.60
2023-07-21T20:48:11.683Z,1.20
2023-07-21T20:51:14.370Z,1.70
2023-07-21T20:54:17.095Z,1.90
2023-07-21T20:57:19.789Z,1.60
2023-07-21T21:00:24.736Z,1.60
2023-07-21T21:03:27.553Z,1.90
2023-07-21T21:06:31.034Z,1.70
2023-07-21T21:09:35.018Z,1.60
2023-07-21T21:12:38.387Z,1.60
2023-07-21T21:15:41.014Z,1.60
2023-07-21T21:18:43.694Z,1.70
2023-07-21T21:21:46.315Z,1.70
2023-07-21T21:24:54.152Z,1.40
2023-07-21T21:27:57.231Z,1.40
2023-07-21T21:31:02.193Z,1.40
2023-07-21T21:34:04.882Z,1.70
2023-07-21T21:37:07.738Z,1.40
2023-07-21T21:40:11.537Z,1.80
2023-07-21T21:43:14.258Z,1.70
2023-07-21T21:46:17.106Z,1.40
2023-07-21T21:49:20.963Z,1.50
2023-07-21T21:52:23.598Z,1.40
2023-07-21T21:55:26.374Z,1.40
2023-07-21T21:58:33.423Z,1.10
2023-07-21T22:01:36.184Z,1.30
2023-07-21T22:04:38.903Z,1.40
2023-07-21T22:07:41.636Z,1.40
2023-07-21T22:10:44.330Z,1.60
2023-07-21T22:13:47.089Z,1.30
2023-07-21T22:16:49.809Z,1.00
2023-07-21T22:20:04.322Z,1.10
2023-07-21T22:23:13.884Z,1.00
2023-07-21T22:26:16.567Z,1.40
2023-07-21T22:29:19.335Z,1.20
2023-07-21T22:32:25.166Z,1.00
2023-07-21T22:35:29.093Z,1.00
2023-07-21T22:38:31.724Z,1.00
2023-07-21T22:41:34.510Z,1.20
2023-07-21T22:44:37.317Z,1.30
2023-07-21T22:47:40.073Z,1.10
2023-07-21T22:50:42.732Z,1.40
2023-07-21T22:53:45.459Z,1.00
2023-07-21T22:56:48.404Z,1.20
2023-07-21T22:59:51.114Z,1.30
2023-07-21T23:02:53.799Z,1.40
2023-07-21T23:05:56.837Z,1.70
2023-07-21T23:08:59.560Z,1.70
2023-07-21T23:12:03.031Z,1.60
2023-07-21T23:15:06.537Z,1.40
2023-07-21T23:18:09.507Z,1.50
2023-07-21T23:21:12.305Z,1.70
2023-07-21T23:24:15.784Z,1.60
2023-07-21T23:27:18.616Z,1.40
2023-07-21T23:30:21.372Z,1.50
2023-07-21T23:33:24.014Z,1.40
2023-07-21T23:36:28.185Z,1.60
2023-07-21T23:39:32.673Z,1.10
2023-07-21T23:42:35.408Z,1.50
2023-07-21T23:45:38.095Z,1.80
2023-07-21T23:48:40.736Z,1.70
2023-07-21T23:51:43.385Z,1.60
2023-07-21T23:54:46.060Z,1.40
2023-07-21T23:57:48.684Z,1.70
